sensor_id;sensor_type;location;lat;lon;timestamp;pressure;altitude;pressure_sealevel;temperature;humidity
29371;BME280;16357;52.188;7.838;2023-04-27T00:01:48;101318.47;;;7.26;52.28
29371;BME280;16357;52.188;7.838;2023-04-27T00:04:15;101318.97;;;7.20;51.86
29371;BME280;16357;52.188;7.838;2023-04-27T00:06:42;101318.59;;;7.13;52.41
29371;BME280;16357;52.188;7.838;2023-04-27T00:09:08;101315.44;;;7.08;52.19
29371;BME280;16357;52.188;7.838;2023-04-27T00:11:35;101319.41;;;7.02;52.28
29371;BME280;16357;52.188;7.838;2023-04-27T00:14:01;101315.41;;;6.97;52.38
29371;BME280;16357;52.188;7.838;2023-04-27T00:16:28;101312.16;;;6.93;52.66
29371;BME280;16357;52.188;7.838;2023-04-27T00:18:54;101312.59;;;6.87;52.83
29371;BME280;16357;52.188;7.838;2023-04-27T00:21:21;101316.50;;;6.83;52.80
29371;BME280;16357;52.188;7.838;2023-04-27T00:23:47;101306.91;;;6.80;52.83
29371;BME280;16357;52.188;7.838;2023-04-27T00:26:14;101309.91;;;6.76;53.13
29371;BME280;16357;52.188;7.838;2023-04-27T00:28:40;101311.00;;;6.73;52.69
29371;BME280;16357;52.188;7.838;2023-04-27T00:31:07;101308.56;;;6.70;53.05
29371;BME280;16357;52.188;7.838;2023-04-27T00:33:33;101315.00;;;6.68;52.93
29371;BME280;16357;52.188;7.838;2023-04-27T00:36:00;101314.38;;;6.64;52.92
29371;BME280;16357;52.188;7.838;2023-04-27T00:38:28;101321.75;;;6.60;52.72
29371;BME280;16357;52.188;7.838;2023-04-27T00:41:12;101314.22;;;6.54;53.22
29371;BME280;16357;52.188;7.838;2023-04-27T00:43:43;101320.78;;;6.50;52.71
29371;BME280;16357;52.188;7.838;2023-04-27T00:46:13;101322.19;;;6.43;52.70
29371;BME280;16357;52.188;7.838;2023-04-27T00:48:40;101320.94;;;6.36;52.74
29371;BME280;16357;52.188;7.838;2023-04-27T00:51:07;101328.56;;;6.29;53.03
29371;BME280;16357;52.188;7.838;2023-04-27T00:53:35;101336.03;;;6.24;53.22
29371;BME280;16357;52.188;7.838;2023-04-27T00:56:02;101331.16;;;6.18;53.26
29371;BME280;16357;52.188;7.838;2023-04-27T00:58:28;101333.31;;;6.13;53.49
29371;BME280;16357;52.188;7.838;2023-04-27T01:00:55;101336.31;;;6.08;53.76
29371;BME280;16357;52.188;7.838;2023-04-27T01:03:21;101335.69;;;6.05;53.58
29371;BME280;16357;52.188;7.838;2023-04-27T01:05:48;101339.53;;;6.01;53.51
29371;BME280;16357;52.188;7.838;2023-04-27T01:08:14;101331.88;;;5.96;53.57
29371;BME280;16357;52.188;7.838;2023-04-27T01:10:41;101331.25;;;5.92;53.51
29371;BME280;16357;52.188;7.838;2023-04-27T01:13:08;101337.84;;;5.87;53.71
29371;BME280;16357;52.188;7.838;2023-04-27T01:15:34;101332.75;;;5.84;53.52
29371;BME280;16357;52.188;7.838;2023-04-27T01:18:01;101332.97;;;5.81;53.78
29371;BME280;16357;52.188;7.838;2023-04-27T01:20:28;101342.16;;;5.77;53.95
29371;BME280;16357;52.188;7.838;2023-04-27T01:22:58;101338.97;;;5.71;53.76
29371;BME280;16357;52.188;7.838;2023-04-27T01:25:25;101350.78;;;5.67;53.90
29371;BME280;16357;52.188;7.838;2023-04-27T01:27:52;101344.94;;;5.62;53.80
29371;BME280;16357;52.188;7.838;2023-04-27T01:30:19;101341.75;;;5.57;54.51
29371;BME280;16357;52.188;7.838;2023-04-27T01:32:48;101345.69;;;5.52;54.27
29371;BME280;16357;52.188;7.838;2023-04-27T01:35:15;101346.88;;;5.47;54.27
29371;BME280;16357;52.188;7.838;2023-04-27T01:37:42;101352.41;;;5.44;54.43
29371;BME280;16357;52.188;7.838;2023-04-27T01:40:09;101347.44;;;5.40;54.41
29371;BME280;16357;52.188;7.838;2023-04-27T01:42:35;101350.28;;;5.37;54.57
29371;BME280;16357;52.188;7.838;2023-04-27T01:45:02;101356.66;;;5.34;54.63
29371;BME280;16357;52.188;7.838;2023-04-27T01:47:29;101360.41;;;5.32;54.68
29371;BME280;16357;52.188;7.838;2023-04-27T01:49:55;101357.00;;;5.30;54.69
29371;BME280;16357;52.188;7.838;2023-04-27T01:52:22;101351.78;;;5.28;54.75
29371;BME280;16357;52.188;7.838;2023-04-27T01:54:48;101358.94;;;5.27;54.84
29371;BME280;16357;52.188;7.838;2023-04-27T01:57:14;101360.97;;;5.24;54.96
29371;BME280;16357;52.188;7.838;2023-04-27T01:59:41;101361.06;;;5.22;55.13
29371;BME280;16357;52.188;7.838;2023-04-27T02:02:08;101361.16;;;5.21;54.87
29371;BME280;16357;52.188;7.838;2023-04-27T02:04:34;101367.53;;;5.18;55.04
29371;BME280;16357;52.188;7.838;2023-04-27T02:07:02;101367.66;;;5.17;54.78
29371;BME280;16357;52.188;7.838;2023-04-27T02:09:28;101370.53;;;5.14;54.99
29371;BME280;16357;52.188;7.838;2023-04-27T02:11:54;101373.38;;;5.11;55.22
29371;BME280;16357;52.188;7.838;2023-04-27T02:14:21;101377.97;;;5.09;54.95
29371;BME280;16357;52.188;7.838;2023-04-27T02:16:47;101379.97;;;5.05;55.23
29371;BME280;16357;52.188;7.838;2023-04-27T02:19:14;101379.25;;;5.03;55.14
29371;BME280;16357;52.188;7.838;2023-04-27T02:21:41;101373.25;;;4.99;55.09
29371;BME280;16357;52.188;7.838;2023-04-27T02:24:08;101373.47;;;4.96;55.44
29371;BME280;16357;52.188;7.838;2023-04-27T02:26:35;101383.47;;;4.93;55.20
29371;BME280;16357;52.188;7.838;2023-04-27T02:29:01;101382.72;;;4.91;55.30
29371;BME280;16357;52.188;7.838;2023-04-27T02:31:29;101378.56;;;4.87;55.34
29371;BME280;16357;52.188;7.838;2023-04-27T02:33:56;101391.13;;;4.84;55.08
29371;BME280;16357;52.188;7.838;2023-04-27T02:36:22;101389.63;;;4.80;55.28
29371;BME280;16357;52.188;7.838;2023-04-27T02:38:49;101388.09;;;4.76;55.19
29371;BME280;16357;52.188;7.838;2023-04-27T02:41:15;101398.94;;;4.73;55.37
29371;BME280;16357;52.188;7.838;2023-04-27T02:43:41;101386.00;;;4.69;55.58
29371;BME280;16357;52.188;7.838;2023-04-27T02:46:08;101382.78;;;4.64;55.78
29371;BME280;16357;52.188;7.838;2023-04-27T02:48:34;101380.44;;;4.59;55.61
29371;BME280;16357;52.188;7.838;2023-04-27T02:51:04;101385.94;;;4.56;55.91
29371;BME280;16357;52.188;7.838;2023-04-27T02:53:30;101383.59;;;4.51;55.81
29371;BME280;16357;52.188;7.838;2023-04-27T02:55:57;101381.13;;;4.48;55.66
29371;BME280;16357;52.188;7.838;2023-04-27T02:58:24;101384.00;;;4.45;56.13
29371;BME280;16357;52.188;7.838;2023-04-27T03:00:54;101383.25;;;4.43;55.76
29371;BME280;16357;52.188;7.838;2023-04-27T03:03:22;101383.53;;;4.38;55.98
29371;BME280;16357;52.188;7.838;2023-04-27T03:05:48;101379.28;;;4.36;55.68
29371;BME280;16357;52.188;7.838;2023-04-27T03:08:15;101371.53;;;4.33;55.97
29371;BME280;16357;52.188;7.838;2023-04-27T03:10:41;101369.81;;;4.32;56.14
29371;BME280;16357;52.188;7.838;2023-04-27T03:13:07;101367.47;;;4.27;56.05
29371;BME280;16357;52.188;7.838;2023-04-27T03:15:34;101362.25;;;4.26;56.05
29371;BME280;16357;52.188;7.838;2023-04-27T03:18:00;101353.72;;;4.21;56.20
29371;BME280;16357;52.188;7.838;2023-04-27T03:20:27;101368.81;;;4.20;56.04
29371;BME280;16357;52.188;7.838;2023-04-27T03:22:53;101369.84;;;4.17;56.27
29371;BME280;16357;52.188;7.838;2023-04-27T03:25:20;101354.97;;;4.15;56.17
29371;BME280;16357;52.188;7.838;2023-04-27T03:27:46;101356.88;;;4.13;56.29
29371;BME280;16357;52.188;7.838;2023-04-27T03:30:13;101364.13;;;4.11;56.33
29371;BME280;16357;52.188;7.838;2023-04-27T03:32:40;101373.97;;;4.09;56.42
29371;BME280;16357;52.188;7.838;2023-04-27T03:35:06;101366.22;;;4.06;56.19
29371;BME280;16357;52.188;7.838;2023-04-27T03:37:33;101375.94;;;4.05;56.39
29371;BME280;16357;52.188;7.838;2023-04-27T03:39:59;101370.84;;;4.02;56.50
29371;BME280;16357;52.188;7.838;2023-04-27T03:42:26;101362.13;;;4.00;56.48
29371;BME280;16357;52.188;7.838;2023-04-27T03:44:52;101364.03;;;3.98;56.56
29371;BME280;16357;52.188;7.838;2023-04-27T03:47:19;101365.09;;;3.95;56.58
29371;BME280;16357;52.188;7.838;2023-04-27T03:49:45;101367.00;;;3.93;56.55
29371;BME280;16357;52.188;7.838;2023-04-27T03:52:12;101363.56;;;3.91;57.02
29371;BME280;16357;52.188;7.838;2023-04-27T03:54:39;101364.63;;;3.89;56.61
29371;BME280;16357;52.188;7.838;2023-04-27T03:57:06;101373.63;;;3.86;56.61
29371;BME280;16357;52.188;7.838;2023-04-27T03:59:32;101375.53;;;3.84;56.83
29371;BME280;16357;52.188;7.838;2023-04-27T04:01:58;101371.16;;;3.83;56.87
29371;BME280;16357;52.188;7.838;2023-04-27T04:04:26;101373.19;;;3.80;56.57
29371;BME280;16357;52.188;7.838;2023-04-27T04:06:53;101378.56;;;3.78;56.66
29371;BME280;16357;52.188;7.838;2023-04-27T04:09:19;101380.47;;;3.76;56.70
29371;BME280;16357;52.188;7.838;2023-04-27T04:11:50;101377.06;;;3.74;56.95
29371;BME280;16357;52.188;7.838;2023-04-27T04:14:17;101386.09;;;3.71;57.38
29371;BME280;16357;52.188;7.838;2023-04-27T04:16:43;101388.81;;;3.70;56.72
29371;BME280;16357;52.188;7.838;2023-04-27T04:19:09;101389.78;;;3.69;56.85
29371;BME280;16357;52.188;7.838;2023-04-27T04:21:36;101396.97;;;3.67;57.08
29371;BME280;16357;52.188;7.838;2023-04-27T04:24:02;101395.25;;;3.66;57.20
29371;BME280;16357;52.188;7.838;2023-04-27T04:26:29;101393.56;;;3.65;57.09
29371;BME280;16357;52.188;7.838;2023-04-27T04:28:55;101398.00;;;3.64;57.01
29371;BME280;16357;52.188;7.838;2023-04-27T04:31:22;101395.44;;;3.63;57.02
29371;BME280;16357;52.188;7.838;2023-04-27T04:33:48;101403.53;;;3.61;56.93
29371;BME280;16357;52.188;7.838;2023-04-27T04:36:15;101407.97;;;3.61;57.11
29371;BME280;16357;52.188;7.838;2023-04-27T04:38:41;101413.28;;;3.61;57.35
29371;BME280;16357;52.188;7.838;2023-04-27T04:41:07;101410.63;;;3.61;57.58
29371;BME280;16357;52.188;7.838;2023-04-27T04:43:35;101409.66;;;3.62;57.62
29371;BME280;16357;52.188;7.838;2023-04-27T04:46:01;101414.03;;;3.63;57.67
29371;BME280;16357;52.188;7.838;2023-04-27T04:48:28;101410.44;;;3.64;57.81
29371;BME280;16357;52.188;7.838;2023-04-27T04:50:54;101414.78;;;3.65;57.74
29371;BME280;16357;52.188;7.838;2023-04-27T04:53:22;101420.84;;;3.67;57.50
29371;BME280;16357;52.188;7.838;2023-04-27T04:55:48;101422.34;;;3.71;57.56
29371;BME280;16357;52.188;7.838;2023-04-27T04:58:15;101420.56;;;3.71;57.62
29371;BME280;16357;52.188;7.838;2023-04-27T05:00:41;101426.53;;;3.75;57.81
29371;BME280;16357;52.188;7.838;2023-04-27T05:03:08;101433.44;;;3.78;57.89
29371;BME280;16357;52.188;7.838;2023-04-27T05:05:34;101425.22;;;3.82;57.92
29371;BME280;16357;52.188;7.838;2023-04-27T05:08:01;101419.72;;;3.85;57.94
29371;BME280;16357;52.188;7.838;2023-04-27T05:10:28;101429.28;;;3.88;58.44
29371;BME280;16357;52.188;7.838;2023-04-27T05:12:54;101433.44;;;3.92;58.32
29371;BME280;16357;52.188;7.838;2023-04-27T05:15:21;101425.19;;;3.96;58.28
29371;BME280;16357;52.188;7.838;2023-04-27T05:17:47;101429.25;;;4.02;58.53
29371;BME280;16357;52.188;7.838;2023-04-27T05:20:13;101428.00;;;4.08;58.78
29371;BME280;16357;52.188;7.838;2023-04-27T05:22:41;101436.53;;;4.13;58.78
29371;BME280;16357;52.188;7.838;2023-04-27T05:25:07;101427.44;;;4.17;58.87
29371;BME280;16357;52.188;7.838;2023-04-27T05:27:35;101430.44;;;4.25;58.53
29371;BME280;16357;52.188;7.838;2023-04-27T05:30:01;101436.31;;;4.30;58.90
29371;BME280;16357;52.188;7.838;2023-04-27T05:32:28;101437.63;;;4.37;58.88
29371;BME280;16357;52.188;7.838;2023-04-27T05:34:54;101437.13;;;4.45;58.88
29371;BME280;16357;52.188;7.838;2023-04-27T05:37:21;101445.47;;;4.53;58.98
29371;BME280;16357;52.188;7.838;2023-04-27T05:39:47;101446.75;;;4.60;59.32
29371;BME280;16357;52.188;7.838;2023-04-27T05:42:14;101445.31;;;4.69;59.35
29371;BME280;16357;52.188;7.838;2023-04-27T05:44:40;101445.66;;;4.77;59.11
29371;BME280;16357;52.188;7.838;2023-04-27T05:47:07;101448.66;;;4.86;59.10
29371;BME280;16357;52.188;7.838;2023-04-27T05:49:33;101453.34;;;4.95;59.21
29371;BME280;16357;52.188;7.838;2023-04-27T05:52:00;101451.88;;;5.03;59.14
29371;BME280;16357;52.188;7.838;2023-04-27T05:54:26;101447.75;;;5.12;59.41
29371;BME280;16357;52.188;7.838;2023-04-27T05:56:53;101444.56;;;5.20;59.46
29371;BME280;16357;52.188;7.838;2023-04-27T05:59:19;101455.31;;;5.31;59.22
29371;BME280;16357;52.188;7.838;2023-04-27T06:01:46;101445.97;;;5.38;58.94
29371;BME280;16357;52.188;7.838;2023-04-27T06:04:13;101444.47;;;5.47;58.88
29371;BME280;16357;52.188;7.838;2023-04-27T06:06:39;101451.09;;;5.54;58.86
29371;BME280;16357;52.188;7.838;2023-04-27T06:09:06;101456.72;;;5.62;58.65
29371;BME280;16357;52.188;7.838;2023-04-27T06:11:33;101451.72;;;5.70;58.65
29371;BME280;16357;52.188;7.838;2023-04-27T06:14:00;101444.88;;;5.79;58.79
29371;BME280;16357;52.188;7.838;2023-04-27T06:16:26;101447.97;;;5.86;58.71
29371;BME280;16357;52.188;7.838;2023-04-27T06:18:53;101452.78;;;5.93;58.32
29371;BME280;16357;52.188;7.838;2023-04-27T06:21:19;101450.53;;;6.00;58.46
29371;BME280;16357;52.188;7.838;2023-04-27T06:23:46;101453.53;;;6.08;58.71
29371;BME280;16357;52.188;7.838;2023-04-27T06:26:13;101449.44;;;6.15;58.41
29371;BME280;16357;52.188;7.838;2023-04-27T06:28:39;101453.28;;;6.24;58.61
29371;BME280;16357;52.188;7.838;2023-04-27T06:31:06;101450.91;;;6.32;58.75
29371;BME280;16357;52.188;7.838;2023-04-27T06:33:33;101443.19;;;6.41;58.46
29371;BME280;16357;52.188;7.838;2023-04-27T06:36:00;101441.66;;;6.49;58.94
29371;BME280;16357;52.188;7.838;2023-04-27T06:38:27;101452.50;;;6.59;58.47
29371;BME280;16357;52.188;7.838;2023-04-27T06:40:53;101461.63;;;6.68;57.87
29371;BME280;16357;52.188;7.838;2023-04-27T06:43:20;101452.84;;;6.78;57.59
29371;BME280;16357;52.188;7.838;2023-04-27T06:45:46;101455.69;;;6.88;57.58
29371;BME280;16357;52.188;7.838;2023-04-27T06:48:13;101454.03;;;6.98;57.49
29371;BME280;16357;52.188;7.838;2023-04-27T06:50:40;101450.53;;;7.09;57.25
29371;BME280;16357;52.188;7.838;2023-04-27T06:53:06;101454.06;;;7.21;56.87
29371;BME280;16357;52.188;7.838;2023-04-27T06:55:33;101453.16;;;7.33;57.68
29371;BME280;16357;52.188;7.838;2023-04-27T06:58:01;101451.34;;;7.45;57.03
29371;BME280;16357;52.188;7.838;2023-04-27T07:00:28;101451.25;;;7.58;56.99
29371;BME280;16357;52.188;7.838;2023-04-27T07:02:55;101444.09;;;7.69;56.44
29371;BME280;16357;52.188;7.838;2023-04-27T07:05:22;101441.44;;;7.81;56.58
29371;BME280;16357;52.188;7.838;2023-04-27T07:07:48;101448.50;;;7.93;56.21
29371;BME280;16357;52.188;7.838;2023-04-27T07:10:15;101452.00;;;8.05;56.11
29371;BME280;16357;52.188;7.838;2023-04-27T07:12:41;101449.28;;;8.16;55.45
29371;BME280;16357;52.188;7.838;2023-04-27T07:15:08;101449.31;;;8.27;55.33
29371;BME280;16357;52.188;7.838;2023-04-27T07:17:35;101455.38;;;8.41;55.10
29371;BME280;16357;52.188;7.838;2023-04-27T07:20:03;101449.28;;;8.50;54.90
29371;BME280;16357;52.188;7.838;2023-04-27T07:22:31;101452.78;;;8.62;54.88
29371;BME280;16357;52.188;7.838;2023-04-27T07:24:58;101446.53;;;8.72;54.57
29371;BME280;16357;52.188;7.838;2023-04-27T07:27:24;101445.75;;;8.82;54.67
29371;BME280;16357;52.188;7.838;2023-04-27T07:29:51;101450.00;;;8.95;53.83
29371;BME280;16357;52.188;7.838;2023-04-27T07:32:18;101438.38;;;9.06;53.78
29371;BME280;16357;52.188;7.838;2023-04-27T07:34:45;101437.47;;;9.17;53.27
29371;BME280;16357;52.188;7.838;2023-04-27T07:37:19;101431.19;;;9.28;53.15
29371;BME280;16357;52.188;7.838;2023-04-27T07:39:45;101432.81;;;9.40;53.04
29371;BME280;16357;52.188;7.838;2023-04-27T07:42:12;101431.03;;;9.50;52.72
29371;BME280;16357;52.188;7.838;2023-04-27T07:44:38;101422.06;;;9.61;52.12
29371;BME280;16357;52.188;7.838;2023-04-27T07:47:06;101427.47;;;9.71;51.80
29371;BME280;16357;52.188;7.838;2023-04-27T07:49:32;101431.06;;;9.81;51.92
29371;BME280;16357;52.188;7.838;2023-04-27T07:52:00;101430.25;;;9.90;51.30
29371;BME280;16357;52.188;7.838;2023-04-27T07:54:26;101419.72;;;9.98;51.20
29371;BME280;16357;52.188;7.838;2023-04-27T07:56:53;101420.72;;;10.07;50.99
29371;BME280;16357;52.188;7.838;2023-04-27T07:59:19;101424.56;;;10.14;51.17
29371;BME280;16357;52.188;7.838;2023-04-27T08:01:46;101418.34;;;10.23;50.58
29371;BME280;16357;52.188;7.838;2023-04-27T08:04:13;101414.91;;;10.32;49.55
29371;BME280;16357;52.188;7.838;2023-04-27T08:06:41;101418.56;;;10.41;49.66
29371;BME280;16357;52.188;7.838;2023-04-27T08:09:08;101414.19;;;10.50;49.23
29371;BME280;16357;52.188;7.838;2023-04-27T08:11:35;101414.22;;;10.60;49.40
29371;BME280;16357;52.188;7.838;2023-04-27T08:14:01;101404.47;;;10.68;48.14
29371;BME280;16357;52.188;7.838;2023-04-27T08:16:28;101410.97;;;10.75;48.41
29371;BME280;16357;52.188;7.838;2023-04-27T08:18:54;101406.88;;;10.81;48.09
29371;BME280;16357;52.188;7.838;2023-04-27T08:21:23;101418.75;;;10.88;47.86
29371;BME280;16357;52.188;7.838;2023-04-27T08:23:49;101410.13;;;10.94;47.64
29371;BME280;16357;52.188;7.838;2023-04-27T08:26:16;101416.63;;;11.02;47.27
29371;BME280;16357;52.188;7.838;2023-04-27T08:28:42;101416.88;;;11.08;47.81
29371;BME280;16357;52.188;7.838;2023-04-27T08:31:08;101414.34;;;11.16;47.90
29371;BME280;16357;52.188;7.838;2023-04-27T08:33:35;101424.22;;;11.26;48.08
29371;BME280;16357;52.188;7.838;2023-04-27T08:36:02;101413.47;;;11.35;47.57
29371;BME280;16357;52.188;7.838;2023-04-27T08:38:28;101416.69;;;11.49;47.70
29371;BME280;16357;52.188;7.838;2023-04-27T08:40:54;101414.53;;;11.62;46.96
29371;BME280;16357;52.188;7.838;2023-04-27T08:43:21;101422.09;;;11.76;46.85
29371;BME280;16357;52.188;7.838;2023-04-27T08:45:48;101424.34;;;11.91;45.80
29371;BME280;16357;52.188;7.838;2023-04-27T08:48:18;101421.31;;;12.03;45.17
29371;BME280;16357;52.188;7.838;2023-04-27T08:50:49;101427.03;;;12.18;45.56
29371;BME280;16357;52.188;7.838;2023-04-27T08:53:16;101419.75;;;12.28;44.50
29371;BME280;16357;52.188;7.838;2023-04-27T08:55:43;101424.91;;;12.40;45.14
29371;BME280;16357;52.188;7.838;2023-04-27T08:58:10;101415.78;;;12.50;45.02
29371;BME280;16357;52.188;7.838;2023-04-27T09:00:40;101422.81;;;12.61;45.10
29371;BME280;16357;52.188;7.838;2023-04-27T09:03:26;101415.47;;;12.71;44.92
29371;BME280;16357;52.188;7.838;2023-04-27T09:05:52;101414.44;;;12.82;44.57
29371;BME280;16357;52.188;7.838;2023-04-27T09:08:49;101412.00;;;12.97;44.82
29371;BME280;16357;52.188;7.838;2023-04-27T09:11:34;101412.44;;;13.10;44.03
29371;BME280;16357;52.188;7.838;2023-04-27T09:14:03;101398.72;;;13.22;43.58
29371;BME280;16357;52.188;7.838;2023-04-27T09:16:40;101404.59;;;13.35;43.04
29371;BME280;16357;52.188;7.838;2023-04-27T09:19:07;101406.84;;;13.48;42.83
29371;BME280;16357;52.188;7.838;2023-04-27T09:21:34;101411.66;;;13.62;42.38
29371;BME280;16357;52.188;7.838;2023-04-27T09:24:11;101408.91;;;13.80;42.95
29371;BME280;16357;52.188;7.838;2023-04-27T09:26:38;101414.00;;;13.91;42.10
29371;BME280;16357;52.188;7.838;2023-04-27T09:29:05;101404.44;;;14.05;41.94
29371;BME280;16357;52.188;7.838;2023-04-27T09:31:32;101410.06;;;14.20;41.77
29371;BME280;16357;52.188;7.838;2023-04-27T09:33:59;101409.41;;;14.34;41.13
29371;BME280;16357;52.188;7.838;2023-04-27T09:36:26;101402.53;;;14.48;40.73
29371;BME280;16357;52.188;7.838;2023-04-27T09:38:52;101400.41;;;14.60;40.21
29371;BME280;16357;52.188;7.838;2023-04-27T09:41:19;101394.84;;;14.69;40.50
29371;BME280;16357;52.188;7.838;2023-04-27T09:43:46;101397.56;;;14.78;39.73
29371;BME280;16357;52.188;7.838;2023-04-27T09:46:13;101393.16;;;14.85;39.50
29371;BME280;16357;52.188;7.838;2023-04-27T09:48:40;101396.72;;;14.93;39.51
29371;BME280;16357;52.188;7.838;2023-04-27T09:51:07;101393.19;;;15.01;39.52
29371;BME280;16357;52.188;7.838;2023-04-27T09:53:45;101378.47;;;15.12;39.73
29371;BME280;16357;52.188;7.838;2023-04-27T09:56:38;101388.75;;;15.25;39.00
29371;BME280;16357;52.188;7.838;2023-04-27T10:01:49;101383.31;;;15.41;38.61
29371;BME280;16357;52.188;7.838;2023-04-27T10:06:59;101381.94;;;15.53;38.66
29371;BME280;16357;52.188;7.838;2023-04-27T10:09:33;101377.03;;;15.57;37.97
29371;BME280;16357;52.188;7.838;2023-04-27T10:12:13;101380.72;;;15.64;38.98
29371;BME280;16357;52.188;7.838;2023-04-27T10:14:50;101369.25;;;15.70;38.29
29371;BME280;16357;52.188;7.838;2023-04-27T10:17:17;101372.25;;;15.75;36.53
29371;BME280;16357;52.188;7.838;2023-04-27T10:19:52;101369.88;;;15.80;36.72
29371;BME280;16357;52.188;7.838;2023-04-27T10:22:36;101362.44;;;15.83;36.80
29371;BME280;16357;52.188;7.838;2023-04-27T10:25:27;101374.25;;;15.82;35.73
29371;BME280;16357;52.188;7.838;2023-04-27T10:28:00;101367.69;;;15.76;35.62
29371;BME280;16357;52.188;7.838;2023-04-27T10:30:35;101375.13;;;15.66;35.67
29371;BME280;16357;52.188;7.838;2023-04-27T10:33:07;101367.41;;;15.54;35.54
29371;BME280;16357;52.188;7.838;2023-04-27T10:35:43;101366.06;;;15.42;35.57
29371;BME280;16357;52.188;7.838;2023-04-27T10:38:18;101368.13;;;15.32;35.51
29371;BME280;16357;52.188;7.838;2023-04-27T10:41:02;101372.84;;;15.22;35.48
29371;BME280;16357;52.188;7.838;2023-04-27T10:43:33;101370.84;;;15.15;35.84
29371;BME280;16357;52.188;7.838;2023-04-27T10:46:10;101365.44;;;15.15;36.02
29371;BME280;16357;52.188;7.838;2023-04-27T10:48:41;101354.47;;;15.17;36.00
29371;BME280;16357;52.188;7.838;2023-04-27T10:51:08;101348.72;;;15.20;35.68
29371;BME280;16357;52.188;7.838;2023-04-27T10:53:36;101346.34;;;15.25;35.75
29371;BME280;16357;52.188;7.838;2023-04-27T10:56:03;101339.56;;;15.29;35.61
29371;BME280;16357;52.188;7.838;2023-04-27T10:58:32;101339.91;;;15.34;35.20
29371;BME280;16357;52.188;7.838;2023-04-27T11:01:23;101336.16;;;15.44;35.91
29371;BME280;16357;52.188;7.838;2023-04-27T11:03:56;101337.66;;;15.54;37.92
29371;BME280;16357;52.188;7.838;2023-04-27T11:06:23;101335.06;;;15.61;35.23
29371;BME280;16357;52.188;7.838;2023-04-27T11:08:49;101323.41;;;15.69;35.42
29371;BME280;16357;52.188;7.838;2023-04-27T11:11:15;101319.16;;;15.74;35.71
29371;BME280;16357;52.188;7.838;2023-04-27T11:13:43;101321.84;;;15.83;34.91
29371;BME280;16357;52.188;7.838;2023-04-27T11:16:10;101305.56;;;15.91;34.84
29371;BME280;16357;52.188;7.838;2023-04-27T11:18:37;101303.50;;;16.01;34.08
29371;BME280;16357;52.188;7.838;2023-04-27T11:21:07;101310.16;;;16.13;34.82
29371;BME280;16357;52.188;7.838;2023-04-27T11:23:34;101300.97;;;16.22;34.18
29371;BME280;16357;52.188;7.838;2023-04-27T11:26:15;101309.72;;;16.33;34.72
29371;BME280;16357;52.188;7.838;2023-04-27T11:28:58;101303.88;;;16.44;34.73
29371;BME280;16357;52.188;7.838;2023-04-27T11:31:25;101306.34;;;16.54;33.43
29371;BME280;16357;52.188;7.838;2023-04-27T11:33:53;101307.09;;;16.62;33.67
29371;BME280;16357;52.188;7.838;2023-04-27T11:36:22;101298.06;;;16.70;32.88
29371;BME280;16357;52.188;7.838;2023-04-27T11:38:49;101308.69;;;16.80;33.05
29371;BME280;16357;52.188;7.838;2023-04-27T11:41:15;101304.19;;;16.87;33.27
29371;BME280;16357;52.188;7.838;2023-04-27T11:43:43;101300.75;;;16.93;32.71
29371;BME280;16357;52.188;7.838;2023-04-27T11:46:13;101304.41;;;17.00;32.42
29371;BME280;16357;52.188;7.838;2023-04-27T11:48:39;101301.97;;;17.05;32.39
29371;BME280;16357;52.188;7.838;2023-04-27T11:51:09;101301.59;;;17.08;32.99
29371;BME280;16357;52.188;7.838;2023-04-27T11:53:37;101311.22;;;17.11;32.37
29371;BME280;16357;52.188;7.838;2023-04-27T11:56:06;101300.88;;;17.15;32.24
29371;BME280;16357;52.188;7.838;2023-04-27T11:58:37;101299.47;;;17.19;32.10
29371;BME280;16357;52.188;7.838;2023-04-27T12:01:04;101298.06;;;17.23;31.84
29371;BME280;16357;52.188;7.838;2023-04-27T12:03:31;101293.59;;;17.30;31.70
29371;BME280;16357;52.188;7.838;2023-04-27T12:05:58;101305.34;;;17.37;31.42
29371;BME280;16357;52.188;7.838;2023-04-27T12:08:44;101299.66;;;17.47;31.63
29371;BME280;16357;52.188;7.838;2023-04-27T12:11:11;101291.25;;;17.57;31.38
29371;BME280;16357;52.188;7.838;2023-04-27T12:13:37;101294.50;;;17.67;30.94
29371;BME280;16357;52.188;7.838;2023-04-27T12:16:04;101294.19;;;17.76;30.37
29371;BME280;16357;52.188;7.838;2023-04-27T12:18:31;101295.97;;;17.84;30.56
29371;BME280;16357;52.188;7.838;2023-04-27T12:20:57;101299.63;;;17.91;29.70
29371;BME280;16357;52.188;7.838;2023-04-27T12:23:28;101288.38;;;17.94;29.45
29371;BME280;16357;52.188;7.838;2023-04-27T12:25:54;101294.38;;;17.90;28.96
29371;BME280;16357;52.188;7.838;2023-04-27T12:28:21;101285.13;;;17.84;29.53
29371;BME280;16357;52.188;7.838;2023-04-27T12:30:47;101288.75;;;17.76;28.95
29371;BME280;16357;52.188;7.838;2023-04-27T12:33:15;101279.50;;;17.71;29.33
29371;BME280;16357;52.188;7.838;2023-04-27T12:35:41;101280.72;;;17.68;29.80
29371;BME280;16357;52.188;7.838;2023-04-27T12:38:08;101292.25;;;17.70;29.36
29371;BME280;16357;52.188;7.838;2023-04-27T12:40:34;101287.84;;;17.69;28.80
29371;BME280;16357;52.188;7.838;2023-04-27T12:43:01;101285.16;;;17.69;29.05
29371;BME280;16357;52.188;7.838;2023-04-27T14:15:04;101216.28;;;17.04;30.10
29371;BME280;16357;52.188;7.838;2023-04-27T14:17:31;101210.31;;;17.45;29.63
29371;BME280;16357;52.188;7.838;2023-04-27T14:19:57;101213.28;;;17.80;28.94
29371;BME280;16357;52.188;7.838;2023-04-27T14:22:24;101216.25;;;18.07;29.15
29371;BME280;16357;52.188;7.838;2023-04-27T14:24:50;101202.22;;;18.25;28.62
29371;BME280;16357;52.188;7.838;2023-04-27T14:27:17;101205.88;;;18.38;28.75
29371;BME280;16357;52.188;7.838;2023-04-27T14:29:43;101204.69;;;18.48;28.58
29371;BME280;16357;52.188;7.838;2023-04-27T14:32:09;101201.81;;;18.56;28.83
29371;BME280;16357;52.188;7.838;2023-04-27T14:34:36;101194.75;;;18.61;27.58